createdAt,value
2023-01-31T00:01:37.619Z,90.00
2023-01-31T00:04:07.398Z,89.95
2023-01-31T00:06:37.341Z,90.00
2023-01-31T00:09:05.660Z,90.17
2023-01-31T00:11:32.941Z,90.04
2023-01-31T00:14:00.716Z,90.18
2023-01-31T00:16:27.801Z,90.41
2023-01-31T00:18:54.337Z,90.52
2023-01-31T00:21:26.435Z,90.17
2023-01-31T00:23:54.338Z,90.28
2023-01-31T00:26:31.664Z,90.53
2023-01-31T00:29:00.391Z,90.57
2023-01-31T00:31:29.340Z,90.57
2023-01-31T00:33:56.747Z,90.69
2023-01-31T00:36:26.065Z,91.22
2023-01-31T00:38:54.947Z,91.49
2023-01-31T00:41:22.976Z,91.17
2023-01-31T00:43:50.193Z,91.27
2023-01-31T00:46:17.509Z,91.49
2023-01-31T00:48:44.003Z,91.67
2023-01-31T00:51:10.569Z,91.81
2023-01-31T00:53:38.174Z,91.75
2023-01-31T00:56:08.014Z,91.82
2023-01-31T00:58:35.840Z,92.12
2023-01-31T01:01:11.747Z,92.36
2023-01-31T01:03:39.516Z,91.93
2023-01-31T01:06:07.330Z,92.29
2023-01-31T01:08:35.496Z,92.79
2023-01-31T01:11:17.307Z,92.55
2023-01-31T01:13:44.918Z,92.42
2023-01-31T01:16:14.240Z,92.79
2023-01-31T01:18:41.720Z,92.98
2023-01-31T01:21:13.729Z,93.20
2023-01-31T01:23:41.435Z,93.21
2023-01-31T01:26:25.569Z,93.13
2023-01-31T01:28:53.630Z,92.98
2023-01-31T01:31:20.952Z,93.26
2023-01-31T01:33:49.142Z,93.22
2023-01-31T01:36:17.462Z,93.11
2023-01-31T01:38:45.576Z,93.36
2023-01-31T01:41:13.057Z,92.76
2023-01-31T01:43:54.381Z,92.97
2023-01-31T01:46:31.907Z,93.27
2023-01-31T01:49:04.329Z,93.01
2023-01-31T01:51:33.846Z,92.96
2023-01-31T01:54:05.074Z,93.28
2023-01-31T01:56:39.198Z,93.07
2023-01-31T01:59:11.689Z,93.16
2023-01-31T02:01:39.325Z,93.31
2023-01-31T02:04:09.360Z,93.33
2023-01-31T02:06:36.133Z,93.53
2023-01-31T02:09:05.224Z,93.44
2023-01-31T02:11:32.434Z,93.56
2023-01-31T02:14:05.394Z,93.55
2023-01-31T02:16:31.915Z,93.50
2023-01-31T02:18:59.168Z,93.95
2023-01-31T02:21:41.556Z,93.56
2023-01-31T02:24:41.464Z,93.37
2023-01-31T02:27:33.044Z,93.87
2023-01-31T02:30:24.503Z,93.50
2023-01-31T02:33:00.043Z,93.89
2023-01-31T02:35:48.214Z,94.14
2023-01-31T02:38:58.931Z,93.77
2023-01-31T02:41:43.307Z,94.09
2023-01-31T02:44:50.772Z,93.71
2023-01-31T02:47:28.293Z,94.19
2023-01-31T02:50:25.977Z,94.37
2023-01-31T02:52:54.945Z,94.64
2023-01-31T02:55:55.840Z,94.30
2023-01-31T02:58:25.737Z,94.82
2023-01-31T03:00:57.061Z,94.42
2023-01-31T03:03:31.278Z,94.71
2023-01-31T03:06:12.839Z,94.66
2023-01-31T03:08:43.437Z,94.67
2023-01-31T03:11:10.097Z,94.92
2023-01-31T03:14:02.131Z,95.02
2023-01-31T03:17:11.734Z,95.05
2023-01-31T03:19:48.072Z,94.78
2023-01-31T03:22:26.259Z,95.15
2023-01-31T03:24:54.252Z,95.30
2023-01-31T03:27:21.207Z,95.00
2023-01-31T03:29:48.243Z,95.28
2023-01-31T03:32:24.789Z,95.67
2023-01-31T03:34:53.208Z,95.84
2023-01-31T03:37:42.491Z,95.86
2023-01-31T03:40:21.301Z,95.55
2023-01-31T03:42:54.315Z,95.70
2023-01-31T03:45:34.061Z,95.82
2023-01-31T03:48:03.543Z,96.00
2023-01-31T03:50:40.129Z,95.73
2023-01-31T03:53:11.497Z,96.21
2023-01-31T03:55:59.955Z,95.82
2023-01-31T03:58:30.491Z,95.92
2023-01-31T04:01:00.940Z,96.40
2023-01-31T04:03:52.408Z,96.21
2023-01-31T04:06:18.936Z,96.08
2023-01-31T04:08:45.797Z,95.96
2023-01-31T04:11:14.389Z,96.19
2023-01-31T04:13:42.702Z,96.22
2023-01-31T04:16:09.363Z,96.16
2023-01-31T04:18:37.696Z,96.07
2023-01-31T04:21:05.339Z,96.49
2023-01-31T04:23:32.215Z,96.03
2023-01-31T04:25:58.681Z,96.35
2023-01-31T04:28:25.166Z,95.63
2023-01-31T04:30:55.840Z,95.85
2023-01-31T04:33:23.089Z,96.27
2023-01-31T04:35:51.424Z,96.29
2023-01-31T04:38:17.999Z,96.39
2023-01-31T04:40:44.509Z,96.38
2023-01-31T04:43:10.927Z,96.48
2023-01-31T04:45:37.448Z,96.00
2023-01-31T04:48:04.084Z,96.37
2023-01-31T04:50:30.506Z,96.32
2023-01-31T04:52:56.943Z,96.24
2023-01-31T04:55:23.382Z,96.37
2023-01-31T04:57:49.818Z,96.19
2023-01-31T05:00:16.581Z,96.11
2023-01-31T05:02:42.981Z,96.27
2023-01-31T05:05:09.563Z,96.32
2023-01-31T05:07:36.166Z,96.45
2023-01-31T05:10:02.542Z,96.30
2023-01-31T05:12:29.944Z,96.07
2023-01-31T05:14:56.348Z,96.38
2023-01-31T05:17:29.567Z,96.61
2023-01-31T05:19:58.154Z,96.63
2023-01-31T05:22:25.368Z,96.72
2023-01-31T05:24:52.170Z,97.13
2023-01-31T05:27:19.489Z,96.50
2023-01-31T05:29:46.392Z,96.86
2023-01-31T05:32:14.500Z,96.72
2023-01-31T05:34:40.890Z,96.64
2023-01-31T05:37:07.535Z,96.48
2023-01-31T05:39:34.017Z,96.50
2023-01-31T05:42:00.369Z,96.74
2023-01-31T05:44:26.788Z,96.80
2023-01-31T05:46:53.259Z,96.29
2023-01-31T05:49:19.705Z,96.81
2023-01-31T05:51:46.116Z,96.94
2023-01-31T05:54:12.766Z,96.45
2023-01-31T05:56:39.606Z,97.10
2023-01-31T05:59:06.691Z,96.67
2023-01-31T06:01:33.527Z,96.83
2023-01-31T06:04:00.677Z,96.83
2023-01-31T06:06:27.189Z,96.59
2023-01-31T06:08:53.539Z,96.42
2023-01-31T06:11:19.939Z,96.70
2023-01-31T06:13:46.380Z,96.73
2023-01-31T06:16:13.004Z,96.82
2023-01-31T06:18:39.625Z,96.37
2023-01-31T06:21:06.387Z,97.08
2023-01-31T06:23:34.406Z,96.43
2023-01-31T06:26:00.855Z,96.34
2023-01-31T06:28:27.285Z,96.94
2023-01-31T06:30:53.762Z,97.09
2023-01-31T06:33:20.115Z,96.36
2023-01-31T06:35:46.517Z,97.08
2023-01-31T06:38:13.207Z,96.63
2023-01-31T06:40:39.648Z,96.62
2023-01-31T06:43:06.033Z,97.07
2023-01-31T06:45:33.041Z,97.17
2023-01-31T06:47:59.468Z,96.44
2023-01-31T06:50:25.806Z,96.47
2023-01-31T06:52:52.146Z,96.49
2023-01-31T06:55:18.877Z,96.65
2023-01-31T06:57:49.987Z,96.40
2023-01-31T07:00:18.695Z,96.31
2023-01-31T07:02:46.432Z,96.09
2023-01-31T07:05:13.099Z,96.52
2023-01-31T07:07:39.888Z,96.22
2023-01-31T07:10:06.910Z,96.20
2023-01-31T07:12:33.414Z,96.20
2023-01-31T07:14:59.803Z,96.35
2023-01-31T07:17:26.251Z,96.05
2023-01-31T07:19:52.648Z,95.56
2023-01-31T07:22:19.885Z,95.81
2023-01-31T07:24:46.372Z,95.75
2023-01-31T07:27:13.928Z,95.70
2023-01-31T07:29:40.614Z,95.89
2023-01-31T07:32:07.057Z,96.15
2023-01-31T07:34:33.516Z,95.43
2023-01-31T07:37:01.169Z,96.13
2023-01-31T07:39:28.713Z,96.08
2023-01-31T07:41:55.423Z,95.77
2023-01-31T07:44:21.763Z,95.84
2023-01-31T07:46:48.581Z,95.87
2023-01-31T07:49:14.993Z,95.64
2023-01-31T07:51:41.499Z,96.01
2023-01-31T07:54:11.199Z,95.54
2023-01-31T07:56:38.001Z,95.73
2023-01-31T07:59:04.655Z,95.46
2023-01-31T08:01:50.872Z,96.09
2023-01-31T08:04:21.921Z,95.31
2023-01-31T08:06:51.046Z,95.51
2023-01-31T08:09:17.571Z,95.32
2023-01-31T08:11:44.174Z,95.44
2023-01-31T08:14:10.595Z,95.75
2023-01-31T08:16:37.670Z,95.57
2023-01-31T08:19:04.678Z,95.55
2023-01-31T08:21:31.639Z,95.62
2023-01-31T08:23:58.156Z,95.31
2023-01-31T08:26:24.613Z,95.24
2023-01-31T08:28:53.802Z,95.06
2023-01-31T08:31:25.551Z,95.06
2023-01-31T08:33:53.283Z,94.98
2023-01-31T08:36:25.651Z,95.29
2023-01-31T08:38:52.662Z,95.15
2023-01-31T08:41:20.598Z,95.03
2023-01-31T08:43:57.858Z,94.88
2023-01-31T08:46:26.678Z,94.79
2023-01-31T08:48:53.216Z,94.14
2023-01-31T08:51:19.727Z,94.05
2023-01-31T08:53:46.487Z,94.00
2023-01-31T08:56:14.053Z,94.36
2023-01-31T08:58:42.892Z,94.33
2023-01-31T09:01:12.326Z,94.05
2023-01-31T09:03:39.329Z,94.09
2023-01-31T09:06:10.445Z,93.99
2023-01-31T09:08:36.930Z,93.77
2023-01-31T09:11:04.194Z,94.01
2023-01-31T09:13:31.626Z,93.80
2023-01-31T09:16:09.638Z,93.66
2023-01-31T09:18:38.877Z,93.79
2023-01-31T09:21:08.043Z,93.32
2023-01-31T09:23:35.134Z,93.14
2023-01-31T09:26:01.880Z,93.48
2023-01-31T09:28:28.763Z,92.95
2023-01-31T09:30:55.284Z,93.46
2023-01-31T09:33:22.919Z,92.98
2023-01-31T09:36:00.308Z,92.87
2023-01-31T09:38:26.990Z,92.75
2023-01-31T09:40:56.055Z,92.72
2023-01-31T09:43:27.472Z,92.75
2023-01-31T09:45:58.195Z,92.90
2023-01-31T09:48:29.599Z,92.88
2023-01-31T09:50:59.153Z,93.18
2023-01-31T09:53:32.464Z,93.04
2023-01-31T09:56:32.155Z,92.75
2023-01-31T09:59:10.320Z,92.95
2023-01-31T10:01:48.621Z,92.79
2023-01-31T10:04:17.949Z,92.82
2023-01-31T10:06:54.479Z,92.87
2023-01-31T10:09:36.078Z,92.84
2023-01-31T10:12:11.595Z,92.87
2023-01-31T10:14:53.367Z,92.90
2023-01-31T10:17:19.745Z,92.96
2023-01-31T10:19:58.737Z,93.03
2023-01-31T10:22:44.433Z,92.81
2023-01-31T10:25:36.950Z,92.88
2023-01-31T10:28:11.829Z,92.60
2023-01-31T10:30:51.615Z,92.76
2023-01-31T10:33:48.110Z,92.80
2023-01-31T10:36:28.000Z,92.36
2023-01-31T10:39:12.732Z,92.52
2023-01-31T10:41:57.570Z,92.49
2023-01-31T10:44:51.929Z,92.58
2023-01-31T10:47:20.289Z,92.32
2023-01-31T10:49:49.235Z,92.51
2023-01-31T10:52:40.864Z,92.44
2023-01-31T10:55:13.283Z,92.10
2023-01-31T10:57:39.693Z,92.26
2023-01-31T11:00:07.251Z,92.29
2023-01-31T11:02:33.631Z,92.49
2023-01-31T11:05:00.184Z,92.58
2023-01-31T11:07:31.650Z,92.95
2023-01-31T11:09:58.603Z,93.15
2023-01-31T11:12:53.757Z,93.24
2023-01-31T11:15:22.563Z,93.44
2023-01-31T11:17:50.310Z,93.97
2023-01-31T11:20:47.255Z,94.11
2023-01-31T11:23:17.408Z,94.27
2023-01-31T11:25:49.472Z,94.77
2023-01-31T11:28:40.351Z,94.98
2023-01-31T11:31:16.909Z,95.15
2023-01-31T11:33:56.567Z,95.22
2023-01-31T11:36:24.270Z,95.77
2023-01-31T11:38:51.122Z,96.00
2023-01-31T11:41:33.789Z,95.98
2023-01-31T11:44:16.917Z,95.98
2023-01-31T11:46:59.938Z,96.04
2023-01-31T11:49:36.489Z,96.44
2023-01-31T11:52:13.939Z,96.43
2023-01-31T11:54:47.222Z,96.58
2023-01-31T11:57:21.630Z,96.73
2023-01-31T11:59:51.905Z,96.90
2023-01-31T12:02:40.515Z,96.99
2023-01-31T12:05:17.857Z,97.03
2023-01-31T12:07:50.309Z,97.15
2023-01-31T12:10:27.731Z,97.21
2023-01-31T12:13:08.835Z,97.28
2023-01-31T12:15:49.789Z,97.33
2023-01-31T12:18:28.661Z,97.35
2023-01-31T12:21:07.877Z,97.20
2023-01-31T12:24:02.179Z,97.06
2023-01-31T12:26:53.188Z,97.06
2023-01-31T12:29:37.972Z,96.87
2023-01-31T12:32:31.768Z,96.62
2023-01-31T12:35:17.118Z,96.45
2023-01-31T12:38:12.287Z,96.47
2023-01-31T12:41:01.772Z,95.97
2023-01-31T12:44:03.465Z,95.67
2023-01-31T12:47:10.076Z,95.81
2023-01-31T12:50:04.781Z,95.55
2023-01-31T12:52:54.198Z,95.61
2023-01-31T12:55:35.732Z,95.10
2023-01-31T12:58:14.280Z,94.82
2023-01-31T13:00:50.980Z,94.22
2023-01-31T13:03:39.058Z,93.59
2023-01-31T13:06:19.983Z,92.83
2023-01-31T13:09:23.933Z,91.93
2023-01-31T13:11:56.311Z,92.08
2023-01-31T13:14:31.026Z,91.59
2023-01-31T13:17:01.366Z,91.57
2023-01-31T13:19:36.688Z,90.97
2023-01-31T13:22:13.178Z,90.66
2023-01-31T13:24:48.360Z,90.66
2023-01-31T13:27:34.978Z,90.02
2023-01-31T13:30:17.389Z,89.83
2023-01-31T13:32:49.581Z,89.59
2023-01-31T13:35:24.957Z,89.51
2023-01-31T13:37:56.111Z,89.64
2023-01-31T13:40:52.265Z,88.72
2023-01-31T13:43:20.433Z,88.57
2023-01-31T13:46:09.551Z,88.06
2023-01-31T13:48:48.762Z,87.45
2023-01-31T13:51:35.765Z,87.98
2023-01-31T13:54:23.507Z,87.44
2023-01-31T13:56:54.526Z,87.41
2023-01-31T13:59:24.629Z,87.34
2023-01-31T14:01:53.320Z,87.03
2023-01-31T14:04:24.322Z,87.19
2023-01-31T14:06:56.467Z,87.44
2023-01-31T14:09:29.005Z,87.36
2023-01-31T14:11:57.774Z,86.63
2023-01-31T14:14:37.145Z,85.75
2023-01-31T14:17:14.531Z,85.77
2023-01-31T14:19:43.904Z,85.54
2023-01-31T14:22:41.472Z,85.46
2023-01-31T14:25:11.053Z,84.78
2023-01-31T14:27:56.013Z,84.46
2023-01-31T14:30:30.038Z,84.52
2023-01-31T14:33:08.614Z,84.02
2023-01-31T14:36:07.275Z,83.80
2023-01-31T14:38:48.606Z,83.76
2023-01-31T14:41:20.576Z,83.76
2023-01-31T14:44:01.609Z,83.41
2023-01-31T14:46:49.403Z,83.19
2023-01-31T14:49:28.080Z,82.61
2023-01-31T14:52:06.286Z,83.05
2023-01-31T14:54:54.437Z,82.97
2023-01-31T14:57:25.605Z,83.22
2023-01-31T15:00:05.450Z,82.99
2023-01-31T15:02:32.183Z,82.79
2023-01-31T15:05:31.083Z,82.82
2023-01-31T15:08:13.750Z,82.92
2023-01-31T15:11:02.824Z,82.37
2023-01-31T15:13:47.415Z,82.10
2023-01-31T15:16:29.825Z,82.55
2023-01-31T15:19:05.428Z,82.58
2023-01-31T15:21:42.059Z,82.41
2023-01-31T15:24:21.779Z,82.31
2023-01-31T15:26:49.450Z,82.55
2023-01-31T15:29:24.245Z,82.52
2023-01-31T15:31:58.183Z,83.04
2023-01-31T15:34:33.400Z,83.05
2023-01-31T15:37:09.387Z,83.05
2023-01-31T15:39:44.112Z,82.89
2023-01-31T15:42:26.008Z,82.46
2023-01-31T15:45:30.541Z,82.15
2023-01-31T15:48:00.062Z,82.02
2023-01-31T15:50:29.090Z,81.38
2023-01-31T15:53:15.399Z,81.01
2023-01-31T15:55:42.257Z,81.01
2023-01-31T15:58:18.759Z,81.39
2023-01-31T16:00:50.331Z,81.26
2023-01-31T16:03:26.414Z,81.60
2023-01-31T16:05:56.076Z,81.47
2023-01-31T16:08:33.876Z,81.59
2023-01-31T16:11:07.371Z,81.58
2023-01-31T16:13:38.113Z,81.64
2023-01-31T16:16:07.287Z,81.88
2023-01-31T16:18:35.684Z,81.72
2023-01-31T16:21:33.153Z,82.07
2023-01-31T16:24:09.620Z,82.33
2023-01-31T16:26:48.102Z,82.38
2023-01-31T16:29:18.237Z,82.31
2023-01-31T16:31:48.967Z,82.38
2023-01-31T16:34:27.328Z,82.70
2023-01-31T16:37:03.658Z,82.62
2023-01-31T16:39:36.954Z,82.65
2023-01-31T16:42:25.974Z,82.32
2023-01-31T16:44:52.635Z,82.16
2023-01-31T16:47:42.041Z,82.03
2023-01-31T16:50:17.650Z,81.58
2023-01-31T16:52:45.410Z,80.72
2023-01-31T16:55:29.962Z,79.97
2023-01-31T16:57:56.299Z,79.96
2023-01-31T17:00:25.644Z,79.66
2023-01-31T17:02:54.662Z,79.47
2023-01-31T17:05:24.838Z,78.50
2023-01-31T17:07:53.578Z,78.12
2023-01-31T17:10:23.472Z,78.10
2023-01-31T17:12:51.518Z,78.46
2023-01-31T17:15:20.618Z,78.27
2023-01-31T17:17:47.909Z,78.27
2023-01-31T17:20:16.654Z,78.39
2023-01-31T17:22:45.675Z,78.22
2023-01-31T17:25:26.463Z,78.28
2023-01-31T17:27:52.834Z,78.40
2023-01-31T17:30:22.093Z,78.56
2023-01-31T17:32:48.698Z,78.65
2023-01-31T17:35:20.081Z,78.59
2023-01-31T17:37:47.139Z,78.55
2023-01-31T17:40:13.632Z,78.33
2023-01-31T17:42:40.190Z,78.56
2023-01-31T17:45:11.956Z,78.65
2023-01-31T17:47:38.310Z,78.62
2023-01-31T17:50:05.726Z,78.54
2023-01-31T17:52:32.159Z,78.61
2023-01-31T17:54:58.556Z,79.15
2023-01-31T17:57:25.061Z,79.23
2023-01-31T17:59:52.257Z,79.35
2023-01-31T18:02:18.688Z,78.96
2023-01-31T18:04:45.061Z,79.60
2023-01-31T18:07:15.611Z,79.18
2023-01-31T18:09:41.988Z,79.27
2023-01-31T18:12:08.351Z,79.53
2023-01-31T18:14:34.730Z,79.14
2023-01-31T18:17:01.113Z,79.86
2023-01-31T18:19:28.345Z,79.88
2023-01-31T18:21:55.704Z,80.09
2023-01-31T18:24:22.668Z,79.83
2023-01-31T18:26:49.275Z,79.88
2023-01-31T18:29:19.610Z,80.27
2023-01-31T18:31:47.590Z,80.24
2023-01-31T18:34:14.387Z,80.55
2023-01-31T18:36:41.012Z,80.36
2023-01-31T18:39:07.373Z,80.60
2023-01-31T18:41:33.776Z,80.97
2023-01-31T18:44:00.454Z,80.79
2023-01-31T18:46:27.991Z,80.49
2023-01-31T18:48:54.430Z,80.49
2023-01-31T18:51:20.827Z,80.62
2023-01-31T18:53:47.578Z,80.58
2023-01-31T18:56:17.165Z,80.78
2023-01-31T18:58:44.749Z,80.79
2023-01-31T19:01:20.539Z,80.74
2023-01-31T19:03:49.996Z,81.16
2023-01-31T19:06:18.999Z,81.17
2023-01-31T19:08:52.703Z,81.56
2023-01-31T19:11:20.836Z,81.14
2023-01-31T19:13:47.605Z,81.53
2023-01-31T19:16:20.594Z,81.46
2023-01-31T19:18:48.286Z,81.42
2023-01-31T19:21:20.624Z,81.69
2023-01-31T19:23:48.280Z,81.82
2023-01-31T19:26:17.053Z,82.23
2023-01-31T19:28:45.252Z,82.05
2023-01-31T19:31:15.344Z,82.05
2023-01-31T19:33:42.103Z,82.03
2023-01-31T19:36:13.715Z,82.36
2023-01-31T19:38:40.377Z,82.07
2023-01-31T19:41:11.582Z,82.29
2023-01-31T19:43:38.213Z,82.71
2023-01-31T19:46:05.933Z,82.47
2023-01-31T19:48:32.786Z,82.71
2023-01-31T19:50:59.521Z,82.63
2023-01-31T19:53:25.907Z,82.34
2023-01-31T19:55:55.752Z,82.50
2023-01-31T19:58:25.636Z,81.78
2023-01-31T20:00:53.003Z,82.29
2023-01-31T20:03:19.422Z,81.87
2023-01-31T20:05:45.872Z,81.95
2023-01-31T20:08:12.301Z,81.95
2023-01-31T20:10:38.699Z,82.15
2023-01-31T20:13:05.150Z,81.69
2023-01-31T20:15:31.673Z,82.09
2023-01-31T20:17:58.071Z,82.26
2023-01-31T20:20:24.554Z,82.04
2023-01-31T20:22:50.921Z,81.69
2023-01-31T20:25:17.249Z,81.57
2023-01-31T20:27:43.667Z,81.45
2023-01-31T20:30:12.492Z,81.49
2023-01-31T20:32:38.902Z,80.78
2023-01-31T20:35:05.640Z,80.77
2023-01-31T20:37:33.425Z,80.10
2023-01-31T20:39:59.830Z,80.21
2023-01-31T20:42:27.061Z,80.64
2023-01-31T20:44:53.445Z,80.17
2023-01-31T20:47:19.778Z,79.71
2023-01-31T20:49:46.158Z,79.44
2023-01-31T20:52:12.505Z,79.26
2023-01-31T20:54:38.896Z,79.10
2023-01-31T20:57:05.329Z,78.74
2023-01-31T20:59:31.674Z,78.74
2023-01-31T21:01:58.060Z,78.34
2023-01-31T21:04:24.588Z,78.00
2023-01-31T21:06:50.990Z,78.28
2023-01-31T21:09:17.369Z,78.05
2023-01-31T21:11:43.791Z,78.05
2023-01-31T21:14:10.126Z,78.47
2023-01-31T21:16:36.539Z,78.64
2023-01-31T21:19:02.924Z,78.57
2023-01-31T21:21:29.334Z,78.75
2023-01-31T21:23:59.377Z,78.41
2023-01-31T21:26:26.994Z,77.94
2023-01-31T21:28:53.796Z,78.84
2023-01-31T21:31:20.871Z,79.21
2023-01-31T21:33:50.270Z,78.67
2023-01-31T21:36:19.527Z,79.48
2023-01-31T21:38:46.262Z,79.63
2023-01-31T21:41:32.136Z,79.37
2023-01-31T21:43:58.737Z,79.79
2023-01-31T21:46:25.995Z,80.10
2023-01-31T21:48:53.310Z,79.97
2023-01-31T21:51:22.287Z,80.65
2023-01-31T21:53:48.660Z,79.72
2023-01-31T21:56:17.952Z,80.49
2023-01-31T21:58:45.557Z,80.41
2023-01-31T22:01:21.102Z,80.89
2023-01-31T22:03:49.787Z,80.72
2023-01-31T22:06:19.214Z,81.06
2023-01-31T22:08:49.757Z,80.77
2023-01-31T22:11:16.363Z,81.05
2023-01-31T22:13:47.923Z,81.18
2023-01-31T22:16:16.603Z,80.99
2023-01-31T22:18:44.615Z,81.42
2023-01-31T22:21:13.724Z,80.66
2023-01-31T22:23:44.552Z,81.74
2023-01-31T22:26:13.234Z,81.23
2023-01-31T22:28:40.323Z,82.02
2023-01-31T22:31:08.356Z,82.11
2023-01-31T22:33:37.383Z,81.75
2023-01-31T22:36:05.331Z,82.00
2023-01-31T22:38:32.288Z,82.09
2023-01-31T22:41:00.522Z,82.85
2023-01-31T22:43:27.851Z,83.19
2023-01-31T22:45:56.694Z,83.10
2023-01-31T22:48:24.713Z,83.14
2023-01-31T22:51:00.098Z,83.84
2023-01-31T22:53:28.985Z,83.53
2023-01-31T22:55:59.504Z,84.16
2023-01-31T22:58:25.833Z,84.06
2023-01-31T23:00:52.219Z,84.21
2023-01-31T23:03:18.781Z,84.01
2023-01-31T23:05:45.291Z,83.81
2023-01-31T23:08:13.221Z,84.64
2023-01-31T23:10:41.298Z,84.45
2023-01-31T23:13:08.405Z,84.58
2023-01-31T23:15:35.404Z,84.91
2023-01-31T23:18:02.385Z,85.22
2023-01-31T23:20:29.137Z,84.64
2023-01-31T23:22:57.592Z,85.23
2023-01-31T23:25:26.494Z,84.88
2023-01-31T23:27:55.357Z,84.60
2023-01-31T23:30:22.230Z,84.75
2023-01-31T23:32:49.102Z,85.31
2023-01-31T23:35:15.687Z,85.09
2023-01-31T23:37:42.415Z,84.74
2023-01-31T23:40:09.702Z,84.97
2023-01-31T23:42:36.125Z,84.70
2023-01-31T23:45:02.581Z,84.96
2023-01-31T23:47:29.041Z,85.13
2023-01-31T23:49:55.426Z,84.88
2023-01-31T23:52:21.761Z,84.50
2023-01-31T23:54:48.151Z,85.37
2023-01-31T23:57:14.565Z,85.39
2023-01-31T23:59:41.043Z,85.23
